createdAt,value
2017-12-11T00:00:17.951Z,4.20
2017-12-11T00:02:46.002Z,4.20
2017-12-11T00:05:14.350Z,4.30
2017-12-11T00:07:42.645Z,4.20
2017-12-11T00:12:40.503Z,4.20
2017-12-11T00:15:09.196Z,4.20
2017-12-11T00:17:37.477Z,4.20
2017-12-11T00:20:05.814Z,4.30
2017-12-11T00:22:47.443Z,4.30
2017-12-11T00:25:15.772Z,4.30
2017-12-11T00:27:45.202Z,4.40
2017-12-11T00:30:13.494Z,4.40
2017-12-11T00:32:44.374Z,4.30
2017-12-11T00:35:13.426Z,4.30
2017-12-11T00:37:41.713Z,4.30
2017-12-11T00:40:10.065Z,4.40
2017-12-11T00:42:39.861Z,4.40
2017-12-11T00:45:08.155Z,4.40
2017-12-11T00:47:36.522Z,4.40
2017-12-11T00:50:04.806Z,4.40
2017-12-11T00:52:34.233Z,4.40
2017-12-11T00:55:03.345Z,4.40
2017-12-11T00:57:32.774Z,4.30
2017-12-11T01:02:31.409Z,4.40
2017-12-11T01:04:59.694Z,4.40
2017-12-11T01:07:27.974Z,4.40
2017-12-11T01:12:26.240Z,4.40
2017-12-11T01:14:55.286Z,4.40
2017-12-11T01:17:23.619Z,4.40
2017-12-11T01:19:53.416Z,4.30
2017-12-11T01:22:21.697Z,4.40
2017-12-11T01:24:50.073Z,4.40
2017-12-11T01:27:19.866Z,4.50
2017-12-11T01:29:48.154Z,4.50
2017-12-11T01:32:16.495Z,4.60
2017-12-11T01:34:44.814Z,4.60
2017-12-11T01:37:13.097Z,4.60
2017-12-11T01:39:41.438Z,4.70
2017-12-11T01:42:15.718Z,4.80
2017-12-11T01:44:45.191Z,4.70
2017-12-11T01:47:13.475Z,4.60
2017-12-11T01:49:42.902Z,4.60
2017-12-11T01:52:12.012Z,4.60
2017-12-11T01:54:41.067Z,4.60
2017-12-11T01:59:39.346Z,4.50
2017-12-11T02:02:07.625Z,4.40
2017-12-11T02:04:37.431Z,4.40
2017-12-11T02:07:05.768Z,4.40
2017-12-11T02:09:34.073Z,4.40
2017-12-11T02:12:03.868Z,4.40
2017-12-11T02:14:32.230Z,4.50
2017-12-11T02:17:00.523Z,4.50
2017-12-11T02:19:30.862Z,4.50
2017-12-11T02:21:59.210Z,4.40
2017-12-11T02:24:27.502Z,4.30
2017-12-11T02:26:56.942Z,4.40
2017-12-11T02:29:25.302Z,4.40
2017-12-11T02:31:53.589Z,4.50
2017-12-11T02:36:52.250Z,4.40
2017-12-11T02:39:20.936Z,4.40
2017-12-11T02:41:49.225Z,4.30
2017-12-11T02:44:17.565Z,4.30
2017-12-11T02:46:45.863Z,4.20
2017-12-11T02:51:43.711Z,4.00
2017-12-11T02:54:11.995Z,3.90
2017-12-11T02:56:40.282Z,3.70
2017-12-11T02:59:08.622Z,3.70
2017-12-11T03:01:36.906Z,3.60
2017-12-11T03:04:05.193Z,3.70
2017-12-11T03:06:34.070Z,3.60
2017-12-11T03:09:03.138Z,3.60
2017-12-11T03:11:32.562Z,3.60
2017-12-11T03:14:01.677Z,3.70
2017-12-11T03:18:59.882Z,3.60
2017-12-11T03:21:28.983Z,3.60
2017-12-11T03:23:57.274Z,3.50
2017-12-11T03:26:25.570Z,3.60
2017-12-11T03:28:55.414Z,3.60
2017-12-11T03:31:23.709Z,3.60
2017-12-11T03:33:52.381Z,3.60
2017-12-11T03:36:21.485Z,3.60
2017-12-11T03:38:49.822Z,3.60
2017-12-11T03:41:18.500Z,3.50
2017-12-11T03:43:46.850Z,3.60
2017-12-11T03:46:15.197Z,3.70
2017-12-11T03:48:44.622Z,3.70
2017-12-11T03:51:12.962Z,3.60
2017-12-11T03:53:42.377Z,3.50
2017-12-11T03:56:11.429Z,3.50
2017-12-11T03:58:39.774Z,3.50
2017-12-11T04:01:08.462Z,3.40
2017-12-11T04:08:37.346Z,3.30
2017-12-11T04:11:05.664Z,3.20
2017-12-11T04:13:34.020Z,3.10
2017-12-11T04:16:03.446Z,2.90
2017-12-11T04:18:31.730Z,3.00
2017-12-11T04:21:00.470Z,3.00
2017-12-11T04:23:28.754Z,3.00
2017-12-11T04:25:58.177Z,3.00
2017-12-11T04:28:26.523Z,3.10
2017-12-11T04:30:54.818Z,3.10
2017-12-11T04:33:24.255Z,3.00
2017-12-11T04:35:52.994Z,3.00
2017-12-11T04:38:21.304Z,3.00
2017-12-11T04:40:49.631Z,2.90
2017-12-11T04:43:18.726Z,3.00
2017-12-11T04:45:48.518Z,2.90
2017-12-11T04:48:17.568Z,2.90
2017-12-11T04:50:47.071Z,2.90
2017-12-11T04:53:16.865Z,2.90
2017-12-11T04:55:45.166Z,3.00
2017-12-11T04:58:13.524Z,3.00
2017-12-11T05:00:43.311Z,3.00
2017-12-11T05:03:11.598Z,3.10
2017-12-11T05:05:39.939Z,3.00
2017-12-11T05:08:08.229Z,2.90
2017-12-11T05:10:36.537Z,2.90
2017-12-11T05:13:04.883Z,2.80
2017-12-11T05:15:34.910Z,2.80
2017-12-11T05:18:03.201Z,2.70
2017-12-11T05:20:32.302Z,2.70
2017-12-11T05:23:00.593Z,2.70
2017-12-11T05:25:28.882Z,2.70
2017-12-11T05:27:58.740Z,2.70
2017-12-11T05:30:27.026Z,2.70
2017-12-11T05:32:55.323Z,2.80
2017-12-11T05:35:23.678Z,2.80
2017-12-11T05:40:22.267Z,2.90
2017-12-11T05:42:51.402Z,2.80
2017-12-11T05:45:19.688Z,3.00
2017-12-11T05:47:47.978Z,2.90
2017-12-11T05:50:16.314Z,2.90
2017-12-11T05:52:44.601Z,3.00
2017-12-11T05:55:12.894Z,3.10
2017-12-11T05:57:41.250Z,3.10
2017-12-11T06:00:09.934Z,3.10
2017-12-11T06:02:38.223Z,3.00
2017-12-11T06:05:06.566Z,3.00
2017-12-11T06:07:36.389Z,3.10
2017-12-11T06:12:34.682Z,3.10
2017-12-11T06:15:03.371Z,3.10
2017-12-11T06:17:31.711Z,3.10
2017-12-11T06:20:00.774Z,3.20
2017-12-11T06:22:29.062Z,3.10
2017-12-11T06:24:57.393Z,3.10
2017-12-11T06:27:25.678Z,3.00
2017-12-11T06:29:53.986Z,3.00
2017-12-11T06:32:22.338Z,3.00
2017-12-11T06:34:51.399Z,3.00
2017-12-11T06:37:20.459Z,3.00
2017-12-11T06:39:51.094Z,3.20
2017-12-11T06:42:19.779Z,3.30
2017-12-11T06:44:48.130Z,3.30
2017-12-11T06:47:16.617Z,3.20
2017-12-11T06:52:14.433Z,3.30
2017-12-11T06:54:42.770Z,3.30
2017-12-11T06:57:11.063Z,3.30
2017-12-11T06:59:39.358Z,3.30
2017-12-11T07:02:07.719Z,3.30
2017-12-11T07:04:36.006Z,3.30
2017-12-11T07:07:05.068Z,3.30
2017-12-11T07:09:33.432Z,3.20
2017-12-11T07:12:02.481Z,3.30
2017-12-11T07:14:31.914Z,3.30
2017-12-11T07:17:00.245Z,3.30
2017-12-11T07:19:28.530Z,3.30
2017-12-11T07:21:56.823Z,3.30
2017-12-11T07:24:25.938Z,3.20
2017-12-11T07:26:54.594Z,3.30
2017-12-11T07:29:23.269Z,3.20
2017-12-11T07:31:52.010Z,3.10
2017-12-11T07:34:20.301Z,3.10
2017-12-11T07:36:48.595Z,3.20
2017-12-11T07:39:16.953Z,3.20
2017-12-11T07:44:15.150Z,3.20
2017-12-11T07:46:45.047Z,3.30
2017-12-11T07:49:13.347Z,3.30
2017-12-11T07:51:41.659Z,3.30
2017-12-11T07:54:09.992Z,3.20
2017-12-11T07:56:38.279Z,3.30
2017-12-11T07:59:06.573Z,3.30
2017-12-11T08:04:04.429Z,3.30
2017-12-11T08:06:32.709Z,3.30
2017-12-11T08:09:01.883Z,3.40
2017-12-11T08:16:30.047Z,3.30
2017-12-11T08:18:58.337Z,3.30
2017-12-11T08:21:26.626Z,3.30
2017-12-11T08:23:54.966Z,3.40
2017-12-11T08:26:23.262Z,3.40
2017-12-11T08:28:51.553Z,3.40
2017-12-11T08:31:19.922Z,3.40
2017-12-11T08:33:49.341Z,3.40
2017-12-11T08:36:17.626Z,3.40
2017-12-11T08:38:45.958Z,3.40
2017-12-11T08:41:15.759Z,3.40
2017-12-11T08:43:44.050Z,3.40
2017-12-11T08:46:12.398Z,3.40
2017-12-11T08:48:40.716Z,3.50
2017-12-11T08:51:09.778Z,3.50
2017-12-11T08:56:08.028Z,3.50
2017-12-11T08:58:36.301Z,3.50
2017-12-11T09:01:04.629Z,3.50
2017-12-11T09:03:32.978Z,3.50
2017-12-11T09:06:01.210Z,3.40
2017-12-11T09:08:29.901Z,3.40
2017-12-11T09:10:58.589Z,3.30
2017-12-11T09:13:26.874Z,3.30
2017-12-11T09:15:55.221Z,3.30
2017-12-11T09:20:54.170Z,3.30
2017-12-11T09:23:24.034Z,3.30
2017-12-11T09:25:53.088Z,3.30
2017-12-11T09:28:21.395Z,3.20
2017-12-11T09:30:49.731Z,3.10
2017-12-11T09:33:18.783Z,3.10
2017-12-11T09:35:47.825Z,3.10
2017-12-11T09:38:16.164Z,3.10
2017-12-11T09:40:44.441Z,3.10
2017-12-11T09:43:12.729Z,2.90
2017-12-11T09:45:41.076Z,3.00
2017-12-11T09:48:09.358Z,3.00
2017-12-11T09:50:38.455Z,3.00
2017-12-11T09:53:07.693Z,3.00
2017-12-11T09:55:36.739Z,2.90
2017-12-11T09:58:05.805Z,2.90
2017-12-11T10:00:35.273Z,2.80
2017-12-11T10:03:03.594Z,2.90
2017-12-11T10:05:31.889Z,2.80
2017-12-11T10:08:00.214Z,2.70
2017-12-11T10:10:29.267Z,2.80
2017-12-11T10:12:58.322Z,2.70
2017-12-11T10:15:26.645Z,2.80
2017-12-11T10:17:55.703Z,2.70
2017-12-11T10:22:54.022Z,2.70
2017-12-11T10:25:22.306Z,2.70
2017-12-11T10:27:50.599Z,2.60
2017-12-11T10:30:18.942Z,2.60
2017-12-11T10:32:47.230Z,2.70
2017-12-11T10:35:15.517Z,2.60
2017-12-11T10:37:45.510Z,2.60
2017-12-11T10:40:13.802Z,2.60
2017-12-11T10:42:43.222Z,2.60
2017-12-11T10:45:11.560Z,2.60
2017-12-11T10:47:39.844Z,2.70
2017-12-11T10:50:08.132Z,2.70
2017-12-11T10:52:37.233Z,2.80
2017-12-11T10:55:05.518Z,2.70
2017-12-11T10:57:33.806Z,2.60
2017-12-11T11:00:03.658Z,2.70
2017-12-11T11:02:31.949Z,2.70
2017-12-11T11:07:29.788Z,2.70
2017-12-11T11:09:58.075Z,2.80
2017-12-11T11:12:27.126Z,2.80
2017-12-11T11:14:56.232Z,2.80
2017-12-11T11:17:25.277Z,2.80
2017-12-11T11:19:55.073Z,2.70
2017-12-11T11:22:23.805Z,2.80
2017-12-11T11:24:53.235Z,2.80
2017-12-11T11:27:21.522Z,2.80
2017-12-11T11:32:19.776Z,2.80
2017-12-11T11:34:49.190Z,2.80
2017-12-11T11:37:18.307Z,2.80
2017-12-11T11:39:47.360Z,2.80
2017-12-11T11:42:15.643Z,2.70
2017-12-11T11:44:45.482Z,2.80
2017-12-11T11:47:14.534Z,2.90
2017-12-11T11:49:43.585Z,2.80
2017-12-11T11:52:11.921Z,2.70
2017-12-11T11:57:10.115Z,2.80
2017-12-11T11:59:38.477Z,2.80
2017-12-11T12:02:06.757Z,2.80
2017-12-11T12:04:35.043Z,2.90
2017-12-11T12:07:03.382Z,2.90
2017-12-11T12:09:32.425Z,2.90
2017-12-11T12:12:00.713Z,2.90
2017-12-11T12:14:29.818Z,2.90
2017-12-11T12:16:58.113Z,2.90
2017-12-11T12:19:27.164Z,2.80
2017-12-11T12:21:55.942Z,2.80
2017-12-11T12:24:25.368Z,2.80
2017-12-11T12:26:53.662Z,2.80
2017-12-11T12:29:23.510Z,2.70
2017-12-11T12:34:21.709Z,2.80
2017-12-11T12:36:50.830Z,2.80
2017-12-11T12:39:20.275Z,2.80
2017-12-11T12:41:48.957Z,2.80
2017-12-11T12:44:17.295Z,2.90
2017-12-11T12:46:46.723Z,3.00
2017-12-11T12:49:15.048Z,2.90
2017-12-11T12:51:43.424Z,2.90
2017-12-11T12:54:11.707Z,3.00
2017-12-11T12:59:09.978Z,3.00
2017-12-11T13:01:39.038Z,3.00
2017-12-11T13:06:37.294Z,3.00
2017-12-11T13:11:35.485Z,3.00
2017-12-11T13:14:03.842Z,3.00
2017-12-11T13:16:33.635Z,3.00
2017-12-11T13:19:02.319Z,3.10
2017-12-11T13:21:32.174Z,3.10
2017-12-11T13:24:00.463Z,3.10
2017-12-11T13:26:28.741Z,3.20
2017-12-11T13:31:27.000Z,3.30
2017-12-11T13:33:56.436Z,3.40
2017-12-11T13:36:25.543Z,3.40
2017-12-11T13:38:54.594Z,3.40
2017-12-11T13:41:22.877Z,3.40
2017-12-11T13:43:51.225Z,3.50
2017-12-11T13:46:19.514Z,3.40
2017-12-11T13:48:47.804Z,3.40
2017-12-11T13:53:45.658Z,3.40
2017-12-11T13:56:13.938Z,3.50
2017-12-11T13:58:42.279Z,3.60
2017-12-11T14:01:10.561Z,3.60
2017-12-11T14:03:38.842Z,3.60
2017-12-11T14:06:09.177Z,3.60
2017-12-11T14:08:38.601Z,3.60
2017-12-11T14:11:06.887Z,3.50
2017-12-11T14:16:05.157Z,3.60
2017-12-11T14:21:03.781Z,3.70
2017-12-11T14:23:32.467Z,3.80
2017-12-11T14:26:00.751Z,3.90
2017-12-11T14:28:29.081Z,3.80
2017-12-11T14:30:57.366Z,3.90
2017-12-11T14:35:55.995Z,3.90
2017-12-11T14:38:25.422Z,3.80
2017-12-11T14:43:24.435Z,3.70
2017-12-11T14:45:52.718Z,3.80
2017-12-11T14:48:22.146Z,3.70
2017-12-11T14:53:21.172Z,3.70
2017-12-11T14:58:20.178Z,3.90
2017-12-11T15:00:49.234Z,3.90
2017-12-11T15:03:17.514Z,4.00
2017-12-11T15:05:46.680Z,4.00
2017-12-11T15:08:14.922Z,4.00
2017-12-11T15:10:43.210Z,4.00
2017-12-11T15:13:11.539Z,4.00
2017-12-11T15:15:39.824Z,4.00
2017-12-11T15:18:09.615Z,3.90
2017-12-11T15:20:37.970Z,4.00
2017-12-11T15:23:07.382Z,4.00
2017-12-11T15:25:35.667Z,4.00
2017-12-11T15:28:11.706Z,4.00
2017-12-11T15:30:40.373Z,3.90
2017-12-11T15:33:08.667Z,3.80
2017-12-11T15:35:37.027Z,3.90
2017-12-11T15:38:06.070Z,4.00
2017-12-11T15:43:04.367Z,3.90
2017-12-11T15:45:33.417Z,4.00
2017-12-11T15:48:02.461Z,4.00
2017-12-11T15:53:00.705Z,4.20
2017-12-11T15:55:28.991Z,4.20
2017-12-11T15:57:57.334Z,4.30
2017-12-11T16:00:25.614Z,4.30
2017-12-11T16:02:53.898Z,4.30
2017-12-11T16:05:22.230Z,4.30
2017-12-11T16:07:50.519Z,4.20
2017-12-11T16:10:19.937Z,4.10
2017-12-11T16:15:18.162Z,4.30
2017-12-11T16:17:46.443Z,4.20
2017-12-11T16:20:14.785Z,4.30
2017-12-11T16:22:43.851Z,4.30
2017-12-11T16:25:12.125Z,4.30
2017-12-11T16:27:40.462Z,4.30
2017-12-11T16:32:39.158Z,4.40
2017-12-11T16:35:08.629Z,4.30
2017-12-11T16:37:36.922Z,4.40
2017-12-11T16:40:05.211Z,4.50
2017-12-11T16:42:33.939Z,4.50
2017-12-11T16:45:02.991Z,4.40
2017-12-11T16:47:31.275Z,4.40
2017-12-11T16:49:59.614Z,4.40
2017-12-11T16:52:27.900Z,4.30
2017-12-11T16:54:56.181Z,4.40
2017-12-11T16:57:24.529Z,4.50
2017-12-11T16:59:52.815Z,4.60
2017-12-11T17:02:21.868Z,4.60
2017-12-11T17:07:21.231Z,4.90
2017-12-11T17:09:50.273Z,5.10
2017-12-11T17:12:20.117Z,5.40
2017-12-11T17:14:48.410Z,5.70
2017-12-11T17:19:46.689Z,6.30
2017-12-11T17:22:14.979Z,6.60
2017-12-11T17:24:44.780Z,6.80
2017-12-11T17:27:13.142Z,7.00
2017-12-11T17:29:41.439Z,7.10
2017-12-11T17:32:09.719Z,7.20
2017-12-11T17:34:39.606Z,7.40
2017-12-11T17:37:07.894Z,7.50
2017-12-11T17:39:36.589Z,7.50
2017-12-11T17:42:06.430Z,7.70
2017-12-11T17:44:34.730Z,7.80
2017-12-11T17:47:03.774Z,7.90
2017-12-11T17:49:32.110Z,7.90
2017-12-11T17:52:00.398Z,8.00
2017-12-11T17:54:28.687Z,8.00
2017-12-11T17:56:57.038Z,8.10
2017-12-11T17:59:26.470Z,8.20
2017-12-11T18:01:54.748Z,8.10
2017-12-11T18:04:23.078Z,8.20
2017-12-11T18:06:51.362Z,8.30
2017-12-11T18:09:19.650Z,8.30
2017-12-11T18:11:47.994Z,8.40
2017-12-11T18:16:45.808Z,8.60
2017-12-11T18:19:14.274Z,8.60
2017-12-11T18:24:13.637Z,8.60
2017-12-11T18:29:11.558Z,8.70
2017-12-11T18:31:39.874Z,8.80
2017-12-11T18:34:08.252Z,8.70
2017-12-11T18:36:36.560Z,8.70
2017-12-11T18:41:34.411Z,8.80
2017-12-11T18:46:33.037Z,8.80
2017-12-11T18:49:01.442Z,8.80
2017-12-11T18:51:29.749Z,8.90
2017-12-11T18:53:59.169Z,8.90
2017-12-11T18:56:27.515Z,8.90
2017-12-11T18:58:57.394Z,8.90
2017-12-11T19:01:25.707Z,8.90
2017-12-11T19:03:54.079Z,8.90
2017-12-11T19:08:52.253Z,8.90
2017-12-11T19:11:20.578Z,8.90
2017-12-11T19:13:49.999Z,8.80
2017-12-11T19:16:19.775Z,8.90
2017-12-11T19:21:17.989Z,8.80
2017-12-11T19:23:46.282Z,8.70
2017-12-11T19:26:29.155Z,8.80
2017-12-11T19:28:57.425Z,8.80
2017-12-11T19:31:25.705Z,8.80
2017-12-11T19:33:54.830Z,8.80
2017-12-11T19:36:23.119Z,8.80
2017-12-11T19:38:52.234Z,8.80
2017-12-11T19:41:21.356Z,8.80
2017-12-11T19:43:50.406Z,8.80
2017-12-11T19:48:48.264Z,8.70
2017-12-11T19:51:16.539Z,8.70
2017-12-11T19:53:45.582Z,8.60
2017-12-11T19:56:14.704Z,8.60
2017-12-11T19:58:43.743Z,8.60
2017-12-11T20:01:12.778Z,8.60
2017-12-11T20:06:10.603Z,8.70
2017-12-11T20:08:38.890Z,8.60
2017-12-11T20:11:08.358Z,8.60
2017-12-11T20:16:07.353Z,8.50
2017-12-11T20:18:35.654Z,8.50
2017-12-11T20:21:03.926Z,8.50
2017-12-11T20:23:32.205Z,8.50
2017-12-11T20:26:01.661Z,8.40
2017-12-11T20:28:29.939Z,8.20
2017-12-11T20:30:58.211Z,8.10
2017-12-11T20:33:27.305Z,8.10
2017-12-11T20:35:55.583Z,7.80
2017-12-11T20:38:23.863Z,7.70
2017-12-11T20:40:52.963Z,7.40
2017-12-11T20:43:21.246Z,7.30
2017-12-11T20:45:49.922Z,7.30
2017-12-11T20:48:18.258Z,7.00
2017-12-11T20:50:46.555Z,6.80
2017-12-11T20:53:14.831Z,6.60
2017-12-11T20:55:43.172Z,6.50
2017-12-11T20:58:11.459Z,6.40
2017-12-11T21:00:39.747Z,6.30
2017-12-11T21:03:08.145Z,6.20
2017-12-11T21:05:37.570Z,6.10
2017-12-11T21:08:05.862Z,5.90
2017-12-11T21:10:34.214Z,5.90
2017-12-11T21:13:02.487Z,5.80
2017-12-11T21:20:29.863Z,5.60
2017-12-11T21:22:58.149Z,5.50
2017-12-11T21:25:27.631Z,5.50
2017-12-11T21:27:55.905Z,5.40
2017-12-11T21:30:24.191Z,5.40
2017-12-11T21:32:53.495Z,5.20
2017-12-11T21:35:21.783Z,5.10
2017-12-11T21:37:50.476Z,5.00
2017-12-11T21:40:18.870Z,4.90
2017-12-11T21:42:47.561Z,4.80
2017-12-11T21:45:15.833Z,4.80
2017-12-11T21:47:45.314Z,4.80
2017-12-11T21:50:13.598Z,4.80
2017-12-11T21:52:41.885Z,4.70
2017-12-11T21:55:10.231Z,4.60
2017-12-11T21:57:38.510Z,4.50
2017-12-11T22:00:07.559Z,4.40
2017-12-11T22:02:37.419Z,4.30
2017-12-11T22:05:05.707Z,4.20
2017-12-11T22:07:35.507Z,4.10
2017-12-11T22:10:03.842Z,4.10
2017-12-11T22:12:33.643Z,4.10
2017-12-11T22:15:01.971Z,4.00
2017-12-11T22:17:30.310Z,4.00
2017-12-11T22:19:59.354Z,4.00
2017-12-11T22:22:27.635Z,3.90
2017-12-11T22:24:56.750Z,3.80
2017-12-11T22:27:25.046Z,3.90
2017-12-11T22:29:54.098Z,3.80
2017-12-11T22:32:22.426Z,3.80
2017-12-11T22:34:50.720Z,3.80
2017-12-11T22:37:18.998Z,3.80
2017-12-11T22:39:47.358Z,3.80
2017-12-11T22:42:15.661Z,3.70
2017-12-11T22:44:45.453Z,3.70
2017-12-11T22:47:13.806Z,3.70
2017-12-11T22:49:42.102Z,3.60
2017-12-11T22:52:10.402Z,3.60
2017-12-11T22:54:38.742Z,3.60
2017-12-11T22:57:07.799Z,3.60
2017-12-11T22:59:36.095Z,3.60
2017-12-11T23:02:04.443Z,3.60
2017-12-11T23:04:32.731Z,3.50
2017-12-11T23:07:01.033Z,3.40
2017-12-11T23:09:29.367Z,3.50
2017-12-11T23:11:57.655Z,3.50
2017-12-11T23:14:25.950Z,3.40
2017-12-11T23:16:54.345Z,3.40
2017-12-11T23:19:23.402Z,3.40
2017-12-11T23:21:52.833Z,3.50
2017-12-11T23:24:21.182Z,3.50
2017-12-11T23:26:50.244Z,3.40
2017-12-11T23:29:18.529Z,3.40
2017-12-11T23:31:47.258Z,3.40
2017-12-11T23:34:16.309Z,3.40
2017-12-11T23:36:44.598Z,3.30
2017-12-11T23:39:12.938Z,3.20
2017-12-11T23:41:41.626Z,3.30
2017-12-11T23:44:09.919Z,3.20
2017-12-11T23:46:38.283Z,3.20
2017-12-11T23:49:06.571Z,3.20
2017-12-11T23:51:34.859Z,3.20
2017-12-11T23:54:14.950Z,3.20
2017-12-11T23:56:43.250Z,3.00
2017-12-11T23:59:11.530Z,3.00
